OOCL Oakland — 3EKJ6 — position and weather

sailwx.info

Track history (hours):
 
Tides and Currents Weather Stations Pressure Air Temp Water Temp Dewpoint Dewpoint Depression Visibility Wind Speed Wind Dir Waves Ship Positions

OOCL Oakland

Last reported at 2017-Mar-31 14:27 UTC. Time now 2017-Apr-27 11:04 UTC.
Position N 23°58' E 118°15'.
Warning: this ship's position is 26 days out of date.

Length 280 m; draft 11.6 m.

Type: Ship. MMSI: 372703235.

Date/timePositionNaut miles runAvg speedWind from/ knotsBaromVisibWave heightAir tempDewpointWater temp
2017-Mar-31 14:27N 23°58' E 118°15'1512.4
2017-Mar-31 13:11N 24°14' E 118°15'213.2
2017-Mar-31 13:00N 24°16' E 118°14'612.3
2017-Mar-31 12:30N 24°21' E 118°10'5 9.7
2017-Mar-31 12:00N 24°24' E 118°06'611.5
2017-Mar-31 11:30N 24°27' E 118°00'2 1.1
2017-Mar-31 10:01N 24°27' E 117°59'0 0.2
2017-Mar-31 09:59N 24°27' E 117°59'0 0.0
2017-Mar-31 09:29N 24°27' E 117°59'0 0.0
2017-Mar-31 09:00N 24°27' E 117°59'0 0.0
2017-Mar-31 08:30N 24°27' E 117°59'0 0.0
2017-Mar-31 07:58N 24°27' E 117°59'0 0.0
2017-Mar-31 07:30N 24°27' E 117°59'0 0.0
2017-Mar-31 07:01N 24°27' E 117°59'0 0.0
2017-Mar-31 06:31N 24°27' E 117°59'0 0.0
2017-Mar-31 05:59N 24°27' E 117°59'0 0.0
2017-Mar-31 05:29N 24°27' E 117°59'0 0.0
2017-Mar-31 04:59N 24°27' E 117°59'0 0.0
2017-Mar-31 04:34N 24°27' E 117°59'0 0.0
2017-Mar-31 03:34N 24°27' E 117°59'0 0.0
2017-Mar-31 02:11N 24°27' E 117°59'0 0.0
2017-Mar-31 01:23N 24°27' E 117°59'0 0.0
2017-Mar-31 00:33N 24°27' E 117°59'0 0.0
2017-Mar-30 23:34N 24°27' E 117°59'0 0.0
2017-Mar-30 22:33N 24°27' E 117°59'0 0.0
2017-Mar-30 21:32N 24°27' E 117°59'0 0.1
2017-Mar-30 20:34N 24°27' E 117°59'7 6.8
2017-Mar-30 19:33N 24°25' E 118°06'1010.3
2017-Mar-30 18:34N 24°17' E 118°14'1110.6
2017-Mar-30 17:33N 24°09' E 118°20'1515.0
2017-Mar-30 16:33N 24°08' E 118°37'1514.9
2017-Mar-30 15:32N 24°03' E 118°52'1514.9
2017-Mar-30 14:33N 23°59' E 119°08'8516.7
2017-Mar-30 09:28N 22°51' E 120°03'1718.7
2017-Mar-30 08:33N 22°35' E 120°12'7 7.2
2017-Mar-30 07:33N 22°33' E 120°19'1 1.2
2017-Mar-30 06:32N 22°34' E 120°18'0 0.0
2017-Mar-30 05:32N 22°34' E 120°18'0 0.0
2017-Mar-30 04:32N 22°34' E 120°18'0 0.0
2017-Mar-30 03:29N 22°34' E 120°18'0 0.0
2017-Mar-30 02:32N 22°34' E 120°18'0 0.0
2017-Mar-30 01:32N 22°34' E 120°18'0 0.0
2017-Mar-30 00:32N 22°34' E 120°18'0 0.0
2017-Mar-29 23:29N 22°34' E 120°18'0 0.0
2017-Mar-29 22:32N 22°34' E 120°18'0 0.0
2017-Mar-29 21:32N 22°34' E 120°18'1 1.2
2017-Mar-29 20:33N 22°33' E 120°19'4 4.5
2017-Mar-29 19:33N 22°32' E 120°15'4 3.8
2017-Mar-29 18:33N 22°30' E 120°11'8 7.8
2017-Mar-29 17:34N 22°22' E 120°12'1514.8
2017-Mar-29 16:33N 22°08' E 120°14'  
Track history (hours):
 
Tides and Currents Weather Stations Pressure Air Temp Water Temp Dewpoint Dewpoint Depression Visibility Wind Speed Wind Dir Waves Ship Positions

OOCL Oakland

Last reported at 2017-Mar-31 14:27 UTC. Time now 2017-Apr-27 11:04 UTC.
Position N 23°58' E 118°15'.
Warning: this ship's position is 26 days out of date.

Length 280 m; draft 11.6 m.

Type: Ship. MMSI: 372703235.

Date/timePositionNaut miles runAvg speedWind from/ knotsBaromVisibWave heightAir tempDewpointWater temp
2017-Mar-31 14:27N 23°58' E 118°15'1512.4
2017-Mar-31 13:11N 24°14' E 118°15'213.2
2017-Mar-31 13:00N 24°16' E 118°14'612.3
2017-Mar-31 12:30N 24°21' E 118°10'5 9.7
2017-Mar-31 12:00N 24°24' E 118°06'611.5
2017-Mar-31 11:30N 24°27' E 118°00'2 1.1
2017-Mar-31 10:01N 24°27' E 117°59'0 0.2
2017-Mar-31 09:59N 24°27' E 117°59'0 0.0
2017-Mar-31 09:29N 24°27' E 117°59'0 0.0
2017-Mar-31 09:00N 24°27' E 117°59'0 0.0
2017-Mar-31 08:30N 24°27' E 117°59'0 0.0
2017-Mar-31 07:58N 24°27' E 117°59'0 0.0
2017-Mar-31 07:30N 24°27' E 117°59'0 0.0
2017-Mar-31 07:01N 24°27' E 117°59'0 0.0
2017-Mar-31 06:31N 24°27' E 117°59'0 0.0
2017-Mar-31 05:59N 24°27' E 117°59'0 0.0
2017-Mar-31 05:29N 24°27' E 117°59'0 0.0
2017-Mar-31 04:59N 24°27' E 117°59'0 0.0
2017-Mar-31 04:34N 24°27' E 117°59'0 0.0
2017-Mar-31 03:34N 24°27' E 117°59'0 0.0
2017-Mar-31 02:11N 24°27' E 117°59'0 0.0
2017-Mar-31 01:23N 24°27' E 117°59'0 0.0
2017-Mar-31 00:33N 24°27' E 117°59'0 0.0
2017-Mar-30 23:34N 24°27' E 117°59'0 0.0
2017-Mar-30 22:33N 24°27' E 117°59'0 0.0
2017-Mar-30 21:32N 24°27' E 117°59'0 0.1
2017-Mar-30 20:34N 24°27' E 117°59'7 6.8
2017-Mar-30 19:33N 24°25' E 118°06'1010.3
2017-Mar-30 18:34N 24°17' E 118°14'1110.6
2017-Mar-30 17:33N 24°09' E 118°20'1515.0
2017-Mar-30 16:33N 24°08' E 118°37'1514.9
2017-Mar-30 15:32N 24°03' E 118°52'1514.9
2017-Mar-30 14:33N 23°59' E 119°08'8516.7
2017-Mar-30 09:28N 22°51' E 120°03'1718.7
2017-Mar-30 08:33N 22°35' E 120°12'7 7.2
2017-Mar-30 07:33N 22°33' E 120°19'1 1.2
2017-Mar-30 06:32N 22°34' E 120°18'0 0.0
2017-Mar-30 05:32N 22°34' E 120°18'0 0.0
2017-Mar-30 04:32N 22°34' E 120°18'0 0.0
2017-Mar-30 03:29N 22°34' E 120°18'0 0.0
2017-Mar-30 02:32N 22°34' E 120°18'0 0.0
2017-Mar-30 01:32N 22°34' E 120°18'0 0.0
2017-Mar-30 00:32N 22°34' E 120°18'0 0.0
2017-Mar-29 23:29N 22°34' E 120°18'0 0.0
2017-Mar-29 22:32N 22°34' E 120°18'0 0.0
2017-Mar-29 21:32N 22°34' E 120°18'1 1.2
2017-Mar-29 20:33N 22°33' E 120°19'4 4.5
2017-Mar-29 19:33N 22°32' E 120°15'4 3.8
2017-Mar-29 18:33N 22°30' E 120°11'8 7.8
2017-Mar-29 17:34N 22°22' E 120°12'1514.8
2017-Mar-29 16:33N 22°08' E 120°14'  

Dump ship's entire track history